PRIVATE WETTERSTATION BILLIGHEIM-ALLFELD                       ZURCK
Wetterdaten: Dienstag, 11.04.2017
Datum Zeit Temp. A. Temp. A. min Temp. A. max Feuchte A. Luftdruck Regen Wind Richtung Richtung Sonnenschein ET Solar Taupunkt Windchill Windben Empfang
11.04.2017 00:00 9,3 C 9,3 C 9,5 C 71 % 1020,3 hPa 0,0 l/m 0,0 km/h (0 Bft) NW 315 0 min 0,025 mm 0 W/m 4,3 C 9,3 C 9,7 km/h (2 Bft) 100 %
11.04.2017 00:10 9,1 C 9,1 C 9,3 C 72 % 1020,3 hPa 0,0 l/m 0,0 km/h (0 Bft) N-NW 337 0 min 0,000 mm 0 W/m 4,3 C 9,1 C 4,8 km/h (1 Bft) 100 %
11.04.2017 00:20 8,8 C 8,8 C 9,1 C 73 % 1020,4 hPa 0,0 l/m 0,0 km/h (0 Bft) N 360 0 min 0,000 mm 0 W/m 4,2 C 8,8 C 6,4 km/h (2 Bft) 100 %
11.04.2017 00:30 8,5 C 8,5 C 8,8 C 74 % 1020,6 hPa 0,0 l/m 0,0 km/h (0 Bft) N 360 0 min 0,000 mm 0 W/m 4,1 C 8,5 C 3,2 km/h (1 Bft) 100 %
11.04.2017 00:40 8,2 C 8,2 C 8,5 C 74 % 1020,6 hPa 0,0 l/m 0,0 km/h (0 Bft) N-NW 337 0 min 0,000 mm 0 W/m 3,8 C 8,2 C 1,6 km/h (1 Bft) 100 %
11.04.2017 00:50 8,0 C 8,0 C 8,2 C 75 % 1020,6 hPa 0,0 l/m 0,0 km/h (0 Bft) N 0 0 min 0,000 mm 0 W/m 3,8 C 8,0 C 0,0 km/h (0 Bft) 100 %
11.04.2017 01:00 7,8 C 7,8 C 8,0 C 76 % 1020,6 hPa 0,0 l/m 0,0 km/h (0 Bft) N 0 0 min 0,025 mm 0 W/m 3,8 C 7,8 C 0,0 km/h (0 Bft) 100 %
11.04.2017 01:10 7,6 C 7,6 C 7,8 C 77 % 1020,7 hPa 0,0 l/m 0,0 km/h (0 Bft) N 360 0 min 0,000 mm 0 W/m 3,8 C 7,6 C 4,8 km/h (1 Bft) 100 %
11.04.2017 01:20 7,4 C 7,4 C 7,6 C 77 % 1020,7 hPa 0,0 l/m 0,0 km/h (0 Bft) N 360 0 min 0,000 mm 0 W/m 3,6 C 7,4 C 1,6 km/h (1 Bft) 100 %
11.04.2017 01:30 7,3 C 7,3 C 7,4 C 78 % 1020,8 hPa 0,0 l/m 0,0 km/h (0 Bft) N 360 0 min 0,000 mm 0 W/m 3,7 C 7,3 C 4,8 km/h (1 Bft) 100 %
11.04.2017 01:40 7,2 C 7,2 C 7,3 C 78 % 1020,9 hPa 0,0 l/m 0,0 km/h (0 Bft) N 360 0 min 0,000 mm 0 W/m 3,6 C 7,2 C 6,4 km/h (2 Bft) 100 %
11.04.2017 01:50 7,0 C 7,0 C 7,2 C 78 % 1021,2 hPa 0,0 l/m 0,0 km/h (0 Bft) N 360 0 min 0,000 mm 0 W/m 3,4 C 7,0 C 3,2 km/h (1 Bft) 100 %
11.04.2017 02:00 6,8 C 6,8 C 7,0 C 79 % 1021,2 hPa 0,0 l/m 0,0 km/h (0 Bft) N 360 0 min 0,025 mm 0 W/m 3,4 C 6,8 C 4,8 km/h (1 Bft) 100 %
11.04.2017 02:10 6,8 C 6,8 C 6,8 C 80 % 1021,2 hPa 0,0 l/m 0,0 km/h (0 Bft) N 0 0 min 0,000 mm 0 W/m 3,6 C 6,8 C 0,0 km/h (0 Bft) 100 %
11.04.2017 02:20 6,8 C 6,8 C 6,8 C 81 % 1021,2 hPa 0,0 l/m 1,6 km/h (1 Bft) N 360 0 min 0,000 mm 0 W/m 3,8 C 6,8 C 6,4 km/h (2 Bft) 100 %
11.04.2017 02:30 6,8 C 6,8 C 6,8 C 81 % 1021,2 hPa 0,0 l/m 0,0 km/h (0 Bft) N 0 0 min 0,000 mm 0 W/m 3,8 C 6,8 C 0,0 km/h (0 Bft) 100 %
11.04.2017 02:40 6,8 C 6,8 C 6,8 C 80 % 1021,2 hPa 0,0 l/m 0,0 km/h (0 Bft) N 0 0 min 0,000 mm 0 W/m 3,6 C 6,8 C 0,0 km/h (0 Bft) 100 %
11.04.2017 02:50 6,7 C 6,7 C 6,8 C 79 % 1021,2 hPa 0,0 l/m 0,0 km/h (0 Bft) N-NW 337 0 min 0,000 mm 0 W/m 3,3 C 6,7 C 1,6 km/h (1 Bft) 98 %
11.04.2017 03:00 6,6 C 6,6 C 6,7 C 79 % 1021,3 hPa 0,0 l/m 1,6 km/h (1 Bft) N-NW 337 0 min 0,025 mm 0 W/m 3,2 C 6,6 C 6,4 km/h (2 Bft) 98 %
11.04.2017 03:10 6,6 C 6,6 C 6,6 C 78 % 1021,4 hPa 0,0 l/m 0,0 km/h (0 Bft) N 360 0 min 0,000 mm 0 W/m 3,0 C 6,6 C 3,2 km/h (1 Bft) 98 %
11.04.2017 03:20 6,5 C 6,5 C 6,6 C 78 % 1021,5 hPa 0,0 l/m 0,0 km/h (0 Bft) N 360 0 min 0,000 mm 0 W/m 2,9 C 6,5 C 3,2 km/h (1 Bft) 98 %
11.04.2017 03:30 6,4 C 6,4 C 6,5 C 78 % 1021,5 hPa 0,0 l/m 0,0 km/h (0 Bft) N 360 0 min 0,000 mm 0 W/m 2,8 C 6,4 C 1,6 km/h (1 Bft) 98 %
11.04.2017 03:40 6,2 C 6,2 C 6,4 C 77 % 1021,6 hPa 0,0 l/m 0,0 km/h (0 Bft) N 0 0 min 0,000 mm 0 W/m 2,5 C 6,2 C 0,0 km/h (0 Bft) 97 %
11.04.2017 03:50 6,1 C 6,1 C 6,2 C 77 % 1021,6 hPa 0,0 l/m 0,0 km/h (0 Bft) N 0 0 min 0,000 mm 0 W/m 2,4 C 6,1 C 0,0 km/h (0 Bft) 97 %
11.04.2017 04:00 5,8 C 5,8 C 6,1 C 77 % 1021,7 hPa 0,0 l/m 0,0 km/h (0 Bft) N 0 0 min 0,025 mm 0 W/m 2,1 C 5,8 C 0,0 km/h (0 Bft) 98 %
11.04.2017 04:10 5,6 C 5,6 C 5,8 C 78 % 1021,8 hPa 0,0 l/m 0,0 km/h (0 Bft) N 0 0 min 0,000 mm 0 W/m 2,1 C 5,6 C 0,0 km/h (0 Bft) 88 %
11.04.2017 04:20 5,5 C 5,4 C 5,6 C 78 % 1021,8 hPa 0,0 l/m 0,0 km/h (0 Bft) N 0 0 min 0,000 mm 0 W/m 2,0 C 5,5 C 0,0 km/h (0 Bft) 97 %
11.04.2017 04:30 5,4 C 5,4 C 5,4 C 78 % 1021,8 hPa 0,0 l/m 0,0 km/h (0 Bft) N 0 0 min 0,000 mm 0 W/m 1,9 C 5,4 C 0,0 km/h (0 Bft) 98 %
11.04.2017 04:40 5,3 C 5,3 C 5,4 C 78 % 1021,9 hPa 0,0 l/m 0,0 km/h (0 Bft) N 0 0 min 0,000 mm 0 W/m 1,8 C 5,3 C 0,0 km/h (0 Bft) 98 %
11.04.2017 04:50 5,1 C 5,1 C 5,3 C 79 % 1022,0 hPa 0,0 l/m 0,0 km/h (0 Bft) N 0 0 min 0,000 mm 0 W/m 1,8 C 5,1 C 0,0 km/h (0 Bft) 98 %
11.04.2017 05:00 4,8 C 4,8 C 5,1 C 80 % 1022,1 hPa 0,0 l/m 0,0 km/h (0 Bft) N 0 0 min 0,000 mm 0 W/m 1,6 C 4,8 C 0,0 km/h (0 Bft) 97 %
11.04.2017 05:10 4,5 C 4,5 C 4,8 C 81 % 1022,2 hPa 0,0 l/m 0,0 km/h (0 Bft) N 0 0 min 0,000 mm 0 W/m 1,5 C 4,5 C 0,0 km/h (0 Bft) 98 %
11.04.2017 05:20 4,3 C 4,3 C 4,5 C 82 % 1022,1 hPa 0,0 l/m 0,0 km/h (0 Bft) N 0 0 min 0,000 mm 0 W/m 1,5 C 4,3 C 0,0 km/h (0 Bft) 97 %
11.04.2017 05:30 4,1 C 4,1 C 4,3 C 82 % 1022,2 hPa 0,0 l/m 0,0 km/h (0 Bft) N 0 0 min 0,000 mm 0 W/m 1,3 C 4,1 C 0,0 km/h (0 Bft) 98 %
11.04.2017 05:40 3,9 C 3,9 C 4,1 C 83 % 1022,2 hPa 0,0 l/m 0,0 km/h (0 Bft) N 0 0 min 0,000 mm 0 W/m 1,3 C 3,9 C 0,0 km/h (0 Bft) 97 %
11.04.2017 05:50 3,8 C 3,8 C 3,9 C 83 % 1022,3 hPa 0,0 l/m 0,0 km/h (0 Bft) N 0 0 min 0,000 mm 0 W/m 1,2 C 3,8 C 0,0 km/h (0 Bft) 98 %
11.04.2017 06:00 3,8 C 3,7 C 3,8 C 83 % 1022,3 hPa 0,0 l/m 0,0 km/h (0 Bft) N 0 0 min 0,000 mm 0 W/m 1,2 C 3,8 C 0,0 km/h (0 Bft) 97 %
11.04.2017 06:10 3,8 C 3,8 C 3,8 C 83 % 1022,4 hPa 0,0 l/m 0,0 km/h (0 Bft) N 0 0 min 0,000 mm 0 W/m 1,2 C 3,8 C 0,0 km/h (0 Bft) 98 %
11.04.2017 06:20 3,8 C 3,8 C 3,8 C 83 % 1022,5 hPa 0,0 l/m 0,0 km/h (0 Bft) N 0 0 min 0,000 mm 0 W/m 1,2 C 3,8 C 0,0 km/h (0 Bft) 98 %
11.04.2017 06:30 3,8 C 3,8 C 3,8 C 83 % 1022,5 hPa 0,0 l/m 0,0 km/h (0 Bft) N 0 0 min 0,000 mm 0 W/m 1,2 C 3,8 C 0,0 km/h (0 Bft) 96 %
11.04.2017 06:40 3,7 C 3,7 C 3,8 C 83 % 1022,6 hPa 0,0 l/m 0,0 km/h (0 Bft) N 0 0 min 0,000 mm 0 W/m 1,1 C 3,7 C 0,0 km/h (0 Bft) 98 %
11.04.2017 06:50 3,7 C 3,7 C 3,7 C 83 % 1022,8 hPa 0,0 l/m 0,0 km/h (0 Bft) N 0 0 min 0,000 mm 5 W/m 1,1 C 3,7 C 0,0 km/h (0 Bft) 97 %
11.04.2017 07:00 3,6 C 3,6 C 3,7 C 84 % 1022,8 hPa 0,0 l/m 0,0 km/h (0 Bft) N 0 0 min 0,000 mm 12 W/m 1,2 C 3,6 C 0,0 km/h (0 Bft) 98 %
11.04.2017 07:10 3,6 C 3,6 C 3,6 C 85 % 1022,9 hPa 0,0 l/m 0,0 km/h (0 Bft) N 0 0 min 0,000 mm 21 W/m 1,3 C 3,6 C 0,0 km/h (0 Bft) 98 %
11.04.2017 07:20 3,6 C 3,6 C 3,6 C 85 % 1023,0 hPa 0,0 l/m 0,0 km/h (0 Bft) N 0 0 min 0,000 mm 32 W/m 1,3 C 3,6 C 0,0 km/h (0 Bft) 98 %
11.04.2017 07:30 3,6 C 3,6 C 3,6 C 86 % 1023,0 hPa 0,0 l/m 0,0 km/h (0 Bft) N 0 0 min 0,000 mm 44 W/m 1,5 C 3,6 C 0,0 km/h (0 Bft) 97 %
11.04.2017 07:40 3,7 C 3,6 C 3,7 C 86 % 1023,2 hPa 0,0 l/m 0,0 km/h (0 Bft) N 0 0 min 0,000 mm 49 W/m 1,6 C 3,7 C 0,0 km/h (0 Bft) 88 %
11.04.2017 07:50 3,7 C 3,7 C 3,7 C 87 % 1023,3 hPa 0,0 l/m 0,0 km/h (0 Bft) N 0 0 min 0,000 mm 70 W/m 1,7 C 3,7 C 0,0 km/h (0 Bft) 98 %
11.04.2017 08:00 3,9 C 3,7 C 3,9 C 88 % 1023,4 hPa 0,0 l/m 0,0 km/h (0 Bft) N 0 0 min 0,025 mm 84 W/m 2,1 C 3,9 C 0,0 km/h (0 Bft) 97 %
11.04.2017 08:10 4,1 C 3,9 C 4,1 C 87 % 1023,8 hPa 0,0 l/m 0,0 km/h (0 Bft) N 0 0 min 0,000 mm 98 W/m 2,1 C 4,1 C 0,0 km/h (0 Bft) 98 %
11.04.2017 08:20 4,4 C 4,1 C 4,4 C 88 % 1024,0 hPa 0,0 l/m 0,0 km/h (0 Bft) N 0 0 min 0,000 mm 139 W/m 2,6 C 4,4 C 0,0 km/h (0 Bft) 98 %
11.04.2017 08:30 4,9 C 4,4 C 4,9 C 87 % 1024,0 hPa 0,0 l/m 0,0 km/h (0 Bft) N 360 0 min 0,000 mm 142 W/m 2,9 C 4,9 C 3,2 km/h (1 Bft) 98 %
11.04.2017 08:40 5,4 C 4,9 C 5,4 C 85 % 1024,3 hPa 0,0 l/m 1,6 km/h (1 Bft) N 360 10 min 0,000 mm 169 W/m 3,1 C 5,4 C 6,4 km/h (2 Bft) 97 %
11.04.2017 08:50 6,1 C 5,4 C 6,1 C 82 % 1024,3 hPa 0,0 l/m 1,6 km/h (1 Bft) N 360 10 min 0,000 mm 163 W/m 3,3 C 6,1 C 9,7 km/h (2 Bft) 97 %
11.04.2017 09:00 6,5 C 6,1 C 6,5 C 80 % 1024,3 hPa 0,0 l/m 1,6 km/h (1 Bft) N 360 0 min 0,051 mm 125 W/m 3,3 C 6,5 C 8,0 km/h (2 Bft) 98 %
11.04.2017 09:10 6,7 C 6,5 C 6,7 C 79 % 1024,4 hPa 0,0 l/m 0,0 km/h (0 Bft) N 360 0 min 0,000 mm 113 W/m 3,3 C 6,7 C 4,8 km/h (1 Bft) 97 %
11.04.2017 09:20 6,9 C 6,7 C 6,9 C 78 % 1024,4 hPa 0,0 l/m 1,6 km/h (1 Bft) N-NW 337 0 min 0,000 mm 128 W/m 3,3 C 6,9 C 8,0 km/h (2 Bft) 98 %
11.04.2017 09:30 7,2 C 6,9 C 7,2 C 78 % 1024,4 hPa 0,0 l/m 1,6 km/h (1 Bft) NW 315 10 min 0,000 mm 197 W/m 3,6 C 7,2 C 9,7 km/h (2 Bft) 98 %
11.04.2017 09:40 7,4 C 7,2 C 7,4 C 75 % 1024,4 hPa 0,0 l/m 3,2 km/h (1 Bft) N-NW 337 10 min 0,000 mm 211 W/m 3,3 C 7,4 C 9,7 km/h (2 Bft) 98 %
11.04.2017 09:50 7,7 C 7,4 C 7,7 C 74 % 1024,5 hPa 0,0 l/m 3,2 km/h (1 Bft) N-NW 337 10 min 0,000 mm 165 W/m 3,4 C 7,7 C 9,7 km/h (2 Bft) 85 %
11.04.2017 10:00 7,9 C 7,7 C 7,9 C 73 % 1024,7 hPa 0,0 l/m 3,2 km/h (1 Bft) N-NW 337 10 min 0,076 mm 373 W/m 3,4 C 7,9 C 11,3 km/h (2 Bft) 97 %
11.04.2017 10:10 8,3 C 7,9 C 8,3 C 72 % 1024,8 hPa 0,0 l/m 4,8 km/h (1 Bft) N-NW 337 10 min 0,000 mm 241 W/m 3,6 C 8,3 C 9,7 km/h (2 Bft) 98 %
11.04.2017 10:30 8,7 C 7,9 C 8,7 C 70 % 1025,0 hPa 0,0 l/m 0,0 km/h (0 Bft) N 355 20 min 0,000 mm 373 W/m 3,5 C 8,7 C 1,6 km/h (1 Bft) 99 %
11.04.2017 10:40 9,7 C 8,7 C 9,7 C 70 % 1025,0 hPa 0,0 l/m 1,8 km/h (1 Bft) W-NW 292 10 min 0,000 mm 671 W/m 4,5 C 9,7 C 9,7 km/h (2 Bft) 100 %
11.04.2017 10:50 11,0 C 9,7 C 11,0 C 63 % 1025,0 hPa 0,0 l/m 1,9 km/h (1 Bft) W-NW 303 10 min 0,000 mm 717 W/m 4,2 C 11,0 C 11,3 km/h (2 Bft) 100 %
11.04.2017 11:00 11,5 C 11,0 C 11,5 C 60 % 1025,1 hPa 0,0 l/m 1,0 km/h (0 Bft) W-NW 303 10 min 0,180 mm 738 W/m 4,0 C 11,5 C 8,0 km/h (2 Bft) 100 %
11.04.2017 11:10 11,7 C 11,5 C 11,7 C 59 % 1025,1 hPa 0,0 l/m 4,0 km/h (1 Bft) NW 314 10 min 0,000 mm 809 W/m 4,0 C 11,7 C 14,5 km/h (3 Bft) 99 %
11.04.2017 11:20 11,6 C 11,6 C 11,7 C 58 % 1025,2 hPa 0,0 l/m 2,5 km/h (1 Bft) NW 306 10 min 0,000 mm 237 W/m 3,6 C 11,6 C 11,3 km/h (2 Bft) 99 %
11.04.2017 11:30 11,3 C 11,3 C 11,6 C 59 % 1025,1 hPa 0,0 l/m 0,4 km/h (0 Bft) NW 319 10 min 0,000 mm 221 W/m 3,6 C 11,3 C 8,0 km/h (2 Bft) 100 %
11.04.2017 11:40 11,6 C 11,3 C 11,6 C 61 % 1025,1 hPa 0,0 l/m 0,3 km/h (0 Bft) N-NO 32 10 min 0,000 mm 865 W/m 4,3 C 11,6 C 4,8 km/h (1 Bft) 100 %
11.04.2017 11:50 11,9 C 11,6 C 11,9 C 58 % 1025,1 hPa 0,0 l/m 3,3 km/h (1 Bft) W-NW 302 10 min 0,000 mm 838 W/m 3,9 C 11,9 C 16,1 km/h (3 Bft) 100 %
11.04.2017 12:00 12,7 C 11,9 C 12,7 C 57 % 1025,1 hPa 0,0 l/m 2,6 km/h (1 Bft) NW 304 10 min 0,000 mm 921 W/m 4,4 C 12,7 C 12,9 km/h (3 Bft) 100 %
11.04.2017 12:10 13,3 C 12,7 C 13,3 C 56 % 1024,9 hPa 0,0 l/m 0,0 km/h (0 Bft) N-NW 327 10 min 0,305 mm 953 W/m 4,7 C 13,3 C 1,6 km/h (1 Bft) 100 %
11.04.2017 12:20 13,1 C 13,1 C 13,5 C 52 % 1025,0 hPa 0,0 l/m 3,3 km/h (1 Bft) NW 313 0 min 0,000 mm 121 W/m 3,5 C 13,1 C 14,5 km/h (3 Bft) 100 %
11.04.2017 12:30 12,4 C 12,4 C 13,1 C 54 % 1024,9 hPa 0,0 l/m 1,0 km/h (0 Bft) N-NW 327 10 min 0,000 mm 895 W/m 3,4 C 12,4 C 8,0 km/h (2 Bft) 100 %
11.04.2017 12:40 12,0 C 11,9 C 12,4 C 59 % 1024,8 hPa 0,0 l/m 0,2 km/h (0 Bft) S 190 10 min 0,000 mm 928 W/m 4,2 C 12,0 C 4,8 km/h (1 Bft) 100 %
11.04.2017 12:50 12,3 C 12,0 C 12,3 C 53 % 1024,6 hPa 0,0 l/m 3,2 km/h (1 Bft) NW 319 10 min 0,000 mm 988 W/m 3,0 C 12,3 C 14,5 km/h (3 Bft) 100 %
11.04.2017 13:00 12,9 C 12,3 C 12,9 C 55 % 1024,7 hPa 0,0 l/m 5,1 km/h (1 Bft) W 275 10 min 0,356 mm 926 W/m 4,1 C 12,9 C 16,1 km/h (3 Bft) 100 %
11.04.2017 13:10 13,0 C 12,9 C 13,2 C 53 % 1024,6 hPa 0,0 l/m 3,1 km/h (1 Bft) S-SW 211 10 min 0,000 mm 837 W/m 3,6 C 13,0 C 11,3 km/h (2 Bft) 100 %
11.04.2017 13:20 13,5 C 13,0 C 13,5 C 50 % 1024,6 hPa 0,0 l/m 1,3 km/h (1 Bft) NW 325 10 min 0,000 mm 921 W/m 3,3 C 13,5 C 9,7 km/h (2 Bft) 100 %
11.04.2017 13:30 13,6 C 13,5 C 13,6 C 48 % 1024,8 hPa 0,0 l/m 2,8 km/h (1 Bft) NW 315 10 min 0,000 mm 399 W/m 2,8 C 13,6 C 14,5 km/h (3 Bft) 100 %
11.04.2017 13:40 13,2 C 13,2 C 13,6 C 49 % 1024,6 hPa 0,0 l/m 2,7 km/h (1 Bft) NW 312 10 min 0,000 mm 635 W/m 2,7 C 13,2 C 14,5 km/h (3 Bft) 100 %
11.04.2017 13:50 13,4 C 13,2 C 13,4 C 48 % 1024,5 hPa 0,0 l/m 0,0 km/h (0 Bft) N-NO 28 10 min 0,000 mm 301 W/m 2,6 C 13,4 C 0,0 km/h (0 Bft) 99 %
11.04.2017 14:00 13,3 C 13,3 C 13,4 C 49 % 1024,4 hPa 0,0 l/m 0,8 km/h (0 Bft) W-SW 256 10 min 0,000 mm 227 W/m 2,8 C 13,3 C 9,7 km/h (2 Bft) 99 %
11.04.2017 14:10 13,1 C 13,1 C 13,3 C 49 % 1024,3 hPa 0,0 l/m 2,0 km/h (1 Bft) W-NW 297 10 min 0,355 mm 250 W/m 2,6 C 13,1 C 9,7 km/h (2 Bft) 100 %
11.04.2017 14:20 13,4 C 13,1 C 13,4 C 51 % 1024,3 hPa 0,0 l/m 1,1 km/h (1 Bft) W-NW 296 10 min 0,000 mm 791 W/m 3,5 C 13,4 C 9,7 km/h (2 Bft) 99 %
11.04.2017 14:30 14,1 C 13,4 C 14,1 C 47 % 1024,1 hPa 0,0 l/m 0,9 km/h (0 Bft) W 279 10 min 0,000 mm 807 W/m 3,0 C 14,1 C 8,0 km/h (2 Bft) 99 %
11.04.2017 14:40 14,3 C 14,1 C 14,4 C 42 % 1024,1 hPa 0,0 l/m 2,2 km/h (1 Bft) NO 37 10 min 0,000 mm 715 W/m 1,6 C 14,3 C 8,0 km/h (2 Bft) 99 %
11.04.2017 14:50 14,4 C 14,2 C 14,4 C 45 % 1024,1 hPa 0,0 l/m 0,3 km/h (0 Bft) N-NO 24 10 min 0,000 mm 770 W/m 2,6 C 14,4 C 6,4 km/h (2 Bft) 99 %
11.04.2017 15:00 14,2 C 14,2 C 14,4 C 42 % 1024,2 hPa 0,0 l/m 1,0 km/h (0 Bft) NO 34 10 min 0,330 mm 698 W/m 1,5 C 14,2 C 8,0 km/h (2 Bft) 99 %
11.04.2017 15:10 14,2 C 14,2 C 14,2 C 44 % 1024,2 hPa 0,0 l/m 0,0 km/h (0 Bft) N-NO 24 10 min 0,000 mm 178 W/m 2,1 C 14,2 C 1,6 km/h (1 Bft) 100 %
11.04.2017 15:20 14,3 C 14,2 C 14,3 C 44 % 1024,0 hPa 0,0 l/m 2,5 km/h (1 Bft) NW 316 0 min 0,000 mm 141 W/m 2,2 C 14,3 C 16,1 km/h (3 Bft) 100 %
11.04.2017 15:30 13,8 C 13,8 C 14,3 C 45 % 1023,9 hPa 0,0 l/m 1,2 km/h (1 Bft) W-NW 300 10 min 0,000 mm 167 W/m 2,1 C 13,8 C 11,3 km/h (2 Bft) 99 %
11.04.2017 15:40 13,2 C 13,2 C 13,8 C 46 % 1023,7 hPa 0,0 l/m 4,0 km/h (1 Bft) S-SO 147 10 min 0,000 mm 197 W/m 1,8 C 13,2 C 9,7 km/h (2 Bft) 100 %
11.04.2017 15:50 13,1 C 12,9 C 13,2 C 46 % 1023,6 hPa 0,0 l/m 3,8 km/h (1 Bft) SO 135 10 min 0,000 mm 221 W/m 1,7 C 13,1 C 11,3 km/h (2 Bft) 100 %
11.04.2017 16:00 14,0 C 13,1 C 14,0 C 43 % 1023,4 hPa 0,0 l/m 6,0 km/h (2 Bft) W 273 10 min 0,127 mm 243 W/m 1,6 C 14,0 C 16,1 km/h (3 Bft) 100 %
11.04.2017 16:10 14,5 C 14,0 C 14,5 C 44 % 1023,6 hPa 0,0 l/m 4,4 km/h (1 Bft) NW 323 10 min 0,000 mm 236 W/m 2,4 C 14,5 C 14,5 km/h (3 Bft) 100 %
11.04.2017 16:20 14,5 C 14,5 C 14,6 C 42 % 1023,4 hPa 0,0 l/m 2,2 km/h (1 Bft) N-NO 31 10 min 0,000 mm 204 W/m 1,7 C 14,5 C 9,7 km/h (2 Bft) 99 %
11.04.2017 16:30 14,6 C 14,4 C 14,6 C 46 % 1023,4 hPa 0,0 l/m 1,0 km/h (0 Bft) NO 34 10 min 0,000 mm 162 W/m 3,1 C 14,6 C 9,7 km/h (2 Bft) 100 %
11.04.2017 16:40 14,9 C 14,6 C 15,0 C 43 % 1023,5 hPa 0,0 l/m 2,2 km/h (1 Bft) N-NO 28 0 min 0,000 mm 146 W/m 2,4 C 14,9 C 14,5 km/h (3 Bft) 100 %
11.04.2017 16:50 14,8 C 14,7 C 14,9 C 45 % 1023,3 hPa 0,0 l/m 3,4 km/h (1 Bft) NO 42 0 min 0,000 mm 93 W/m 3,0 C 14,8 C 14,5 km/h (3 Bft) 100 %
11.04.2017 17:00 14,9 C 14,8 C 14,9 C 45 % 1023,2 hPa 0,0 l/m 2,9 km/h (1 Bft) N-NW 340 0 min 0,102 mm 100 W/m 3,1 C 14,9 C 11,3 km/h (2 Bft) 100 %
11.04.2017 17:10 14,7 C 14,7 C 14,9 C 44 % 1023,1 hPa 0,0 l/m 0,6 km/h (0 Bft) N-NW 346 0 min 0,000 mm 93 W/m 2,6 C 14,7 C 6,4 km/h (2 Bft) 100 %
11.04.2017 17:20 14,6 C 14,6 C 14,7 C 43 % 1023,1 hPa 0,0 l/m 4,1 km/h (1 Bft) N-NW 333 0 min 0,000 mm 95 W/m 2,2 C 14,6 C 11,3 km/h (2 Bft) 100 %
11.04.2017 17:30 14,5 C 14,5 C 14,6 C 46 % 1023,1 hPa 0,0 l/m 3,0 km/h (1 Bft) N 355 0 min 0,000 mm 90 W/m 3,0 C 14,5 C 17,7 km/h (3 Bft) 100 %
11.04.2017 17:40 14,4 C 14,4 C 14,5 C 46 % 1023,2 hPa 0,0 l/m 3,6 km/h (1 Bft) N-NW 336 0 min 0,000 mm 76 W/m 2,9 C 14,4 C 11,3 km/h (2 Bft) 100 %
11.04.2017 17:50 14,1 C 14,1 C 14,4 C 46 % 1023,3 hPa 0,0 l/m 0,4 km/h (0 Bft) NO 37 0 min 0,000 mm 76 W/m 2,7 C 14,1 C 6,4 km/h (2 Bft) 100 %
11.04.2017 18:00 13,8 C 13,8 C 14,1 C 47 % 1023,2 hPa 0,0 l/m 0,5 km/h (0 Bft) N-NW 334 0 min 0,000 mm 72 W/m 2,7 C 13,8 C 6,4 km/h (2 Bft) 99 %
11.04.2017 18:10 13,7 C 13,7 C 13,8 C 46 % 1023,1 hPa 0,0 l/m 0,9 km/h (0 Bft) NO 36 0 min 0,076 mm 63 W/m 2,3 C 13,7 C 6,4 km/h (2 Bft) 98 %
11.04.2017 18:20 13,3 C 13,3 C 13,7 C 47 % 1023,3 hPa 0,0 l/m 0,1 km/h (0 Bft) NO 37 0 min 0,000 mm 54 W/m 2,2 C 13,3 C 6,4 km/h (2 Bft) 100 %
11.04.2017 18:30 13,0 C 13,0 C 13,3 C 47 % 1023,2 hPa 0,0 l/m 0,4 km/h (0 Bft) N-NO 19 0 min 0,000 mm 53 W/m 2,0 C 13,0 C 6,4 km/h (2 Bft) 100 %
11.04.2017 18:40 12,8 C 12,8 C 13,1 C 48 % 1023,3 hPa 0,0 l/m 0,1 km/h (0 Bft) N-NO 24 0 min 0,000 mm 47 W/m 2,1 C 12,8 C 3,2 km/h (1 Bft) 99 %
11.04.2017 18:50 12,6 C 12,6 C 12,8 C 49 % 1023,4 hPa 0,0 l/m 0,1 km/h (0 Bft) N-NO 26 0 min 0,000 mm 47 W/m 2,2 C 12,6 C 4,8 km/h (1 Bft) 99 %
11.04.2017 19:00 12,4 C 12,4 C 12,6 C 50 % 1023,4 hPa 0,0 l/m 0,0 km/h (0 Bft) N-NO 29 0 min 0,026 mm 42 W/m 2,3 C 12,4 C 3,2 km/h (1 Bft) 100 %
11.04.2017 19:10 12,2 C 12,2 C 12,4 C 51 % 1023,5 hPa 0,0 l/m 0,2 km/h (0 Bft) N-NO 17 0 min 0,000 mm 35 W/m 2,4 C 12,2 C 3,2 km/h (1 Bft) 100 %
11.04.2017 19:20 12,0 C 12,0 C 12,2 C 50 % 1023,6 hPa 0,0 l/m 0,3 km/h (0 Bft) N-NO 26 0 min 0,000 mm 33 W/m 1,9 C 12,0 C 6,4 km/h (2 Bft) 99 %
11.04.2017 19:30 11,8 C 11,8 C 12,0 C 51 % 1023,6 hPa 0,0 l/m 0,0 km/h (0 Bft) N-NO 24 0 min 0,000 mm 26 W/m 2,0 C 11,8 C 1,6 km/h (1 Bft) 100 %
11.04.2017 19:40 11,6 C 11,6 C 11,8 C 52 % 1023,4 hPa 0,0 l/m 0,2 km/h (0 Bft) N-NO 22 0 min 0,000 mm 21 W/m 2,1 C 11,6 C 3,2 km/h (1 Bft) 100 %
11.04.2017 19:50 11,2 C 11,2 C 11,6 C 54 % 1023,5 hPa 0,0 l/m 0,0 km/h (0 Bft) N-NO 24 0 min 0,000 mm 14 W/m 2,2 C 11,2 C 0,0 km/h (0 Bft) 100 %
11.04.2017 20:00 10,8 C 10,8 C 11,2 C 56 % 1023,5 hPa 0,0 l/m 0,0 km/h (0 Bft) N-NO 24 0 min 0,025 mm 7 W/m 2,4 C 10,8 C 0,0 km/h (0 Bft) 99 %
11.04.2017 20:10 10,2 C 10,2 C 10,8 C 56 % 1023,5 hPa 0,0 l/m 0,3 km/h (0 Bft) N 9 0 min 0,000 mm 0 W/m 1,8 C 10,2 C 4,8 km/h (1 Bft) 99 %
11.04.2017 20:20 9,7 C 9,7 C 10,2 C 58 % 1023,8 hPa 0,0 l/m 0,2 km/h (0 Bft) N 5 0 min 0,000 mm 0 W/m 1,8 C 9,7 C 4,8 km/h (1 Bft) 99 %
11.04.2017 20:30 9,2 C 9,2 C 9,7 C 60 % 1023,8 hPa 0,0 l/m 0,0 km/h (0 Bft) N 5 0 min 0,000 mm 0 W/m 1,8 C 9,2 C 0,0 km/h (0 Bft) 99 %
11.04.2017 20:40 8,8 C 8,8 C 9,2 C 62 % 1023,9 hPa 0,0 l/m 0,0 km/h (0 Bft) N 5 0 min 0,000 mm 0 W/m 1,9 C 8,8 C 0,0 km/h (0 Bft) 100 %
11.04.2017 20:50 8,4 C 8,4 C 8,8 C 63 % 1024,0 hPa 0,0 l/m 0,0 km/h (0 Bft) N 5 0 min 0,000 mm 0 W/m 1,8 C 8,4 C 0,0 km/h (0 Bft) 99 %
11.04.2017 21:00 8,1 C 8,1 C 8,4 C 65 % 1023,9 hPa 0,0 l/m 0,0 km/h (0 Bft) N 5 0 min 0,000 mm 0 W/m 1,9 C 8,1 C 0,0 km/h (0 Bft) 99 %
11.04.2017 21:10 7,8 C 7,8 C 8,1 C 65 % 1024,1 hPa 0,0 l/m 0,0 km/h (0 Bft) N 0 0 min 0,000 mm 0 W/m 1,6 C 7,8 C 0,0 km/h (0 Bft) 88 %
11.04.2017 21:20 7,6 C 7,6 C 7,8 C 65 % 1024,1 hPa 0,0 l/m 0,0 km/h (0 Bft) N 0 0 min 0,000 mm 0 W/m 1,5 C 7,6 C 0,0 km/h (0 Bft) 98 %
11.04.2017 21:30 7,4 C 7,4 C 7,6 C 65 % 1024,2 hPa 0,0 l/m 0,0 km/h (0 Bft) N 0 0 min 0,000 mm 0 W/m 1,3 C 7,4 C 0,0 km/h (0 Bft) 98 %
11.04.2017 21:40 7,2 C 7,2 C 7,4 C 66 % 1024,4 hPa 0,0 l/m 0,0 km/h (0 Bft) N 0 0 min 0,000 mm 0 W/m 1,3 C 7,2 C 0,0 km/h (0 Bft) 97 %
11.04.2017 21:50 6,9 C 6,9 C 7,2 C 67 % 1024,2 hPa 0,0 l/m 0,0 km/h (0 Bft) N 0 0 min 0,000 mm 0 W/m 1,2 C 6,9 C 0,0 km/h (0 Bft) 98 %
11.04.2017 22:00 6,6 C 6,6 C 6,9 C 69 % 1024,1 hPa 0,0 l/m 0,0 km/h (0 Bft) N 0 0 min 0,025 mm 0 W/m 1,3 C 6,6 C 0,0 km/h (0 Bft) 98 %
11.04.2017 22:10 6,4 C 6,4 C 6,6 C 68 % 1024,1 hPa 0,0 l/m 0,0 km/h (0 Bft) N 0 0 min 0,000 mm 0 W/m 0,9 C 6,4 C 0,0 km/h (0 Bft) 99 %
11.04.2017 22:20 6,3 C 6,3 C 6,4 C 69 % 1024,0 hPa 0,0 l/m 0,0 km/h (0 Bft) N 0 0 min 0,000 mm 0 W/m 1,0 C 6,3 C 0,0 km/h (0 Bft) 98 %
11.04.2017 22:30 6,1 C 6,1 C 6,3 C 70 % 1024,0 hPa 0,0 l/m 0,0 km/h (0 Bft) N 360 0 min 0,000 mm 0 W/m 1,0 C 6,1 C 1,6 km/h (1 Bft) 100 %
11.04.2017 22:40 5,8 C 5,8 C 6,1 C 71 % 1024,1 hPa 0,0 l/m 0,0 km/h (0 Bft) N 0 0 min 0,000 mm 0 W/m 1,0 C 5,8 C 0,0 km/h (0 Bft) 100 %
11.04.2017 22:50 5,6 C 5,6 C 5,8 C 72 % 1024,0 hPa 0,0 l/m 0,0 km/h (0 Bft) N 0 0 min 0,000 mm 0 W/m 1,0 C 5,6 C 0,0 km/h (0 Bft) 100 %
11.04.2017 23:00 5,4 C 5,4 C 5,6 C 72 % 1024,0 hPa 0,0 l/m 0,0 km/h (0 Bft) N 0 0 min 0,025 mm 0 W/m 0,8 C 5,4 C 0,0 km/h (0 Bft) 99 %
11.04.2017 23:10 5,4 C 5,4 C 5,4 C 72 % 1023,9 hPa 0,0 l/m 0,0 km/h (0 Bft) N 0 0 min 0,000 mm 0 W/m 0,8 C 5,4 C 0,0 km/h (0 Bft) 89 %
11.04.2017 23:20 5,4 C 5,4 C 5,4 C 72 % 1024,0 hPa 0,0 l/m 0,0 km/h (0 Bft) N 0 0 min 0,000 mm 0 W/m 0,8 C 5,4 C 0,0 km/h (0 Bft) 99 %
11.04.2017 23:30 5,2 C 5,2 C 5,4 C 72 % 1024,0 hPa 0,0 l/m 0,0 km/h (0 Bft) N 0 0 min 0,000 mm 0 W/m 0,6 C 5,2 C 0,0 km/h (0 Bft) 100 %
11.04.2017 23:40 5,1 C 5,1 C 5,2 C 73 % 1023,9 hPa 0,0 l/m 0,0 km/h (0 Bft) N 0 0 min 0,000 mm 0 W/m 0,7 C 5,1 C 0,0 km/h (0 Bft) 100 %
11.04.2017 23:50 4,9 C 4,9 C 5,1 C 74 % 1023,9 hPa 0,0 l/m 0,0 km/h (0 Bft) N 0 0 min 0,000 mm 0 W/m 0,7 C 4,9 C 0,0 km/h (0 Bft) 100 %
_ Min-Zeit 07:00 07:00 07:10 14:40 00:00 - 00:00 - - - - - 23:30 07:00 00:50 09:50
Minimum _ 3,6 C 3,6 C 3,6 C 42 % 1020,3 hPa - 0,0 km/h (0 Bft) - - - - - 0,6 C 3,6 C 0,0 km/h (0 Bft) 85 %
_ Max-Zeit 16:40 17:00 16:40 08:00 11:20 00:00 16:00 - - 10:30 13:00 12:50 12:10 16:40 17:30 00:00
Maximum _ 15,0 C 14,8 C 15,0 C 88 % 1025,2 hPa 0,0 l/m 6,0 km/h
W (2 Bft)
- - 20 min 0,356 mm 988 W/m 4,7 C 14,9 C 17,7 km/h
N-NW (3 Bft)
100 %
Durchschnitt _ 9,0 C 8,8 C 9,1 C 66 % 1023,3 hPa #0,0 l/m 0,9 km/h (0 Bft) NW - #7:10 h #2,209 mm 306 W/m 2,5 C 9,0 C 4,8 km/h (1 Bft) 99 %
PRIVATE WETTERSTATION BILLIGHEIM-ALLFELD - www.neckar-odenwald-wetter.de - Holger Sonntag